Time;durP1;ratioP1;P1;durP2;ratioP2;P2;SDS_P1;SDS_P2;PMS_P1;PMS_P2;Temp;Humidity;BMP_temperature;BMP_pressure;BME280_temperature;BME280_humidity;BME280_pressure;Samples;Min_cycle;Max_cycle;Signal;HPM_P1;HPM_P2
2021/12/21 00:01:54;;;;;;;10.10;4.22;;;;;;;1.42;100.00;101832.47;5057864;28;20063;-81
2021/12/21 00:04:24;;;;;;;8.43;4.10;;;;;;;1.38;100.00;101831.59;5058677;28;20221;-81
2021/12/21 00:06:56;;;;;;;11.38;4.07;;;;;;;1.37;100.00;101840.25;5059433;28;20118;-81
2021/12/21 00:09:27;;;;;;;9.35;4.38;;;;;;;1.43;100.00;101839.38;5045513;28;20166;-79
2021/12/21 00:12:00;;;;;;;8.10;4.03;;;;;;;1.42;100.00;101829.84;5045039;28;20032;-82
2021/12/21 00:14:57;;;;;;;8.27;4.18;;;;;;;1.42;100.00;101828.13;5058854;28;20136;-80
2021/12/21 00:17:51;;;;;;;9.38;3.83;;;;;;;1.46;100.00;101829.84;5066615;28;20040;-80
2021/12/21 00:20:30;;;;;;;12.02;4.40;;;;;;;1.48;100.00;101822.91;5061802;28;20052;-80
2021/12/21 00:23:29;;;;;;;10.50;4.68;;;;;;;1.49;100.00;101832.44;5051039;28;20672;-81
2021/12/21 00:25:54;;;;;;;13.52;3.95;;;;;;;1.48;100.00;101825.50;5055562;28;20044;-83
2021/12/21 00:28:24;;;;;;;11.20;4.40;;;;;;;1.48;100.00;101822.91;5077720;28;20048;-79
2021/12/21 00:30:52;;;;;;;10.90;3.83;;;;;;;1.51;100.00;101822.91;5081296;28;20114;-80
2021/12/21 00:33:23;;;;;;;10.68;4.43;;;;;;;1.57;100.00;101821.16;5067471;28;20092;-81
2021/12/21 00:35:59;;;;;;;13.88;4.47;;;;;;;1.64;100.00;101820.28;5058029;28;20502;-81
2021/12/21 00:38:28;;;;;;;10.10;4.38;;;;;;;1.66;100.00;101815.94;5047178;28;20076;-81
2021/12/21 00:40:58;;;;;;;9.27;4.05;;;;;;;1.64;100.00;101821.16;5068113;28;20039;-81
2021/12/21 00:43:29;;;;;;;9.38;3.95;;;;;;;1.60;100.00;101823.75;5050269;28;20060;-81
2021/12/21 00:46:03;;;;;;;8.98;3.17;;;;;;;1.61;100.00;101817.69;5050630;28;20040;-81
2021/12/21 00:48:33;;;;;;;10.25;3.47;;;;;;;1.52;100.00;101821.19;5062281;28;20058;-79
2021/12/21 00:51:05;;;;;;;6.28;2.92;;;;;;;1.51;100.00;101819.47;5076453;28;20148;-81
2021/12/21 00:53:39;;;;;;;8.32;3.20;;;;;;;1.47;100.00;101813.41;5046299;28;20048;-79
2021/12/21 00:56:10;;;;;;;8.57;3.08;;;;;;;1.46;100.00;101813.41;5048075;28;20040;-82
2021/12/21 00:58:42;;;;;;;5.32;2.70;;;;;;;1.45;100.00;101815.16;5056332;28;20041;-81
2021/12/21 01:01:14;;;;;;;7.68;3.03;;;;;;;1.45;100.00;101809.09;5067478;28;20524;-81
2021/12/21 01:03:47;;;;;;;7.75;3.22;;;;;;;1.43;100.00;101808.22;5063752;28;20036;-80
2021/12/21 01:12:02;;;;;;;7.80;3.10;;;;;;;1.27;100.00;101799.63;5062344;28;20101;-82
2021/12/21 01:15:04;;;;;;;7.90;2.97;;;;;;;1.33;100.00;101791.81;5064283;28;20528;-80
2021/12/21 01:17:47;;;;;;;8.30;3.53;;;;;;;1.31;100.00;101790.13;5070633;28;20041;-82
2021/12/21 01:26:14;;;;;;;11.02;3.63;;;;;;;1.39;100.00;101799.56;5065444;28;20499;-81
2021/12/21 01:29:04;;;;;;;8.30;3.00;;;;;;;1.32;100.00;101799.63;5064826;28;20113;-80
2021/12/21 01:31:47;;;;;;;11.32;3.58;;;;;;;1.27;100.00;101807.41;5068682;28;20102;-81
2021/12/21 01:34:33;;;;;;;9.02;3.05;;;;;;;1.26;100.00;101800.47;5028424;28;20067;-82
2021/12/21 01:37:20;;;;;;;13.85;4.68;;;;;;;1.21;100.00;101803.06;5071084;28;20047;-80
2021/12/21 01:40:00;;;;;;;8.75;3.50;;;;;;;1.27;100.00;101802.22;5053130;28;20669;-80
2021/12/21 01:51:14;;;;;;;9.10;4.38;;;;;;;1.22;100.00;101802.22;5070234;28;20054;-83
2021/12/21 01:53:53;;;;;;;15.05;4.95;;;;;;;1.34;100.00;101803.06;5051111;28;20380;-82
2021/12/21 01:56:23;;;;;;;13.25;5.20;;;;;;;1.37;100.00;101809.13;5064364;28;20102;-80
2021/12/21 01:58:51;;;;;;;10.60;4.82;;;;;;;1.31;100.00;101803.94;5066983;28;20490;-81
2021/12/21 02:01:29;;;;;;;9.90;4.90;;;;;;;1.30;100.00;101799.59;5062601;28;20060;-80
2021/12/21 02:04:01;;;;;;;11.18;5.03;;;;;;;1.29;100.00;101794.44;5066486;28;20139;-80
2021/12/21 02:06:30;;;;;;;12.10;4.88;;;;;;;1.30;100.00;101791.81;5054492;28;20062;-79
2021/12/21 02:09:00;;;;;;;12.35;4.47;;;;;;;1.31;100.00;101795.31;5042434;28;20152;-79
2021/12/21 02:11:29;;;;;;;10.98;4.95;;;;;;;1.38;100.00;101784.03;5066319;28;20032;-79
2021/12/21 02:14:09;;;;;;;14.70;5.03;;;;;;;1.42;100.00;101788.34;5082755;28;20074;-81
2021/12/21 02:19:36;;;;;;;16.02;5.32;;;;;;;1.38;100.00;101786.63;5038550;28;20063;-80
2021/12/21 02:22:20;;;;;;;8.85;4.70;;;;;;;1.57;100.00;101785.69;5073577;28;20084;-80
2021/12/21 02:25:04;;;;;;;11.70;4.93;;;;;;;1.47;100.00;101784.00;5034803;28;20514;-80
2021/12/21 02:27:42;;;;;;;11.77;4.55;;;;;;;1.48;100.00;101783.13;5058273;28;20115;-80
2021/12/21 02:30:14;;;;;;;11.00;4.97;;;;;;;1.50;100.00;101776.22;5068887;28;20530;-81
2021/12/21 02:32:56;;;;;;;11.32;5.18;;;;;;;1.44;100.00;101784.00;5065427;28;20069;-80
2021/12/21 02:35:24;;;;;;;13.40;5.70;;;;;;;1.49;100.00;101782.28;5065241;28;20062;-80
2021/12/21 02:37:57;;;;;;;13.77;6.38;;;;;;;1.42;100.00;101777.97;5050088;28;20048;-81
2021/12/21 02:40:25;;;;;;;14.65;6.82;;;;;;;1.44;100.00;101786.59;5061582;28;20127;-82
2021/12/21 02:42:55;;;;;;;17.63;6.95;;;;;;;1.57;100.00;101780.50;5060030;28;20086;-81
2021/12/21 02:45:25;;;;;;;12.65;6.50;;;;;;;1.45;100.00;101771.03;5068021;28;20060;-81
2021/12/21 02:47:54;;;;;;;12.18;6.50;;;;;;;1.39;100.00;101780.56;5045091;28;20090;-82
2021/12/21 02:50:22;;;;;;;15.75;7.90;;;;;;;1.42;100.00;101765.00;5058906;28;20613;-81
2021/12/21 02:52:54;;;;;;;15.05;7.32;;;;;;;1.38;100.00;101768.47;5055358;28;20511;-79
2021/12/21 02:55:29;;;;;;;21.25;8.10;;;;;;;1.29;100.00;101769.34;5023058;28;20071;-81
2021/12/21 02:57:57;;;;;;;17.92;8.52;;;;;;;1.24;100.00;101773.69;5030330;28;20040;-80
2021/12/21 03:00:32;;;;;;;12.77;7.38;;;;;;;1.21;100.00;101769.34;5048344;28;20506;-81
2021/12/21 03:03:07;;;;;;;12.32;6.72;;;;;;;1.23;100.00;101774.56;5056008;28;20123;-81
2021/12/21 03:05:36;;;;;;;14.07;7.75;;;;;;;1.23;100.00;101761.59;5048314;28;20040;-80
2021/12/21 03:08:57;;;;;;;15.93;7.10;;;;;;;1.13;100.00;101767.66;5054935;28;20222;-81
2021/12/21 03:11:14;;;;;;;15.88;7.22;;;;;;;1.21;100.00;101768.50;5071379;28;20080;-80
2021/12/21 03:16:33;;;;;;;11.20;6.82;;;;;;;1.21;100.00;101761.56;5063403;28;20494;-81
2021/12/21 03:19:09;;;;;;;13.63;6.50;;;;;;;1.22;100.00;101760.72;5060734;28;20135;-62
2021/12/21 03:21:38;;;;;;;16.65;6.82;;;;;;;1.29;100.00;101752.91;5038364;28;20064;-61
2021/12/21 03:24:06;;;;;;;10.23;6.28;;;;;;;1.33;100.00;101763.28;5022341;28;20506;-61
2021/12/21 03:26:33;;;;;;;12.90;6.88;;;;;;;1.39;100.00;101755.47;5013572;28;20068;-59
2021/12/21 03:29:00;;;;;;;8.93;6.18;;;;;;;1.39;100.00;101757.22;5013831;28;20141;-60
2021/12/21 03:31:28;;;;;;;14.15;7.38;;;;;;;1.37;100.00;101765.00;5017969;28;20133;-59
2021/12/21 03:33:55;;;;;;;10.43;6.03;;;;;;;1.37;100.00;101757.22;5033249;28;20050;-59
2021/12/21 03:36:22;;;;;;;12.45;6.85;;;;;;;1.26;100.00;101764.16;5018591;28;20570;-62
2021/12/21 03:39:05;;;;;;;13.50;6.38;;;;;;;1.29;100.00;101752.91;5023230;28;20050;-61
2021/12/21 03:41:35;;;;;;;13.20;5.95;;;;;;;1.27;100.00;101755.53;5012889;28;20057;-59
2021/12/21 03:44:03;;;;;;;13.00;7.22;;;;;;;1.19;100.00;101757.28;5018005;28;20137;-61
2021/12/21 03:46:33;;;;;;;14.07;7.00;;;;;;;1.17;100.00;101764.19;4998028;28;20049;-64
2021/12/21 03:49:28;;;;;;;14.00;6.93;;;;;;;1.19;100.00;101758.13;5020607;28;20457;-60
2021/12/21 03:51:51;;;;;;;15.68;7.72;;;;;;;1.33;100.00;101747.72;5018400;28;20042;-58
2021/12/21 03:54:18;;;;;;;16.50;7.97;;;;;;;1.32;100.00;101748.59;5014236;28;20418;-59
2021/12/21 03:56:48;;;;;;;13.50;8.48;;;;;;;1.20;100.00;101754.66;5017247;28;20049;-60
2021/12/21 03:59:16;;;;;;;14.43;9.15;;;;;;;1.10;100.00;101752.09;5016574;28;20066;-58
2021/12/21 04:01:43;;;;;;;13.60;9.05;;;;;;;1.08;100.00;101751.22;5017277;28;20058;-59
2021/12/21 04:04:10;;;;;;;18.65;8.80;;;;;;;0.94;100.00;101748.66;5019553;28;20054;-60
2021/12/21 04:06:38;;;;;;;16.42;8.45;;;;;;;0.89;100.00;101753.84;5024190;28;20133;-56
2021/12/21 04:09:06;;;;;;;13.80;8.45;;;;;;;0.91;100.00;101753.88;5019809;28;20661;-62
2021/12/21 04:11:34;;;;;;;14.80;8.95;;;;;;;0.92;100.00;101750.41;5024973;28;20053;-60
2021/12/21 04:14:01;;;;;;;14.85;8.45;;;;;;;0.88;100.00;101754.72;5024047;28;20530;-59
2021/12/21 04:16:28;;;;;;;15.50;9.23;;;;;;;0.84;100.00;101749.53;5030280;28;20052;-62
2021/12/21 04:18:56;;;;;;;12.35;8.75;;;;;;;0.82;100.00;101751.28;5024220;28;20132;-60
2021/12/21 04:21:23;;;;;;;18.63;9.50;;;;;;;0.83;100.00;101758.19;5022257;28;20050;-58
2021/12/21 04:23:50;;;;;;;14.60;8.23;;;;;;;0.89;100.00;101750.41;5021260;28;20049;-59
2021/12/21 04:26:18;;;;;;;18.60;8.80;;;;;;;0.94;100.00;101757.28;5011750;28;20045;-60
2021/12/21 04:28:45;;;;;;;22.25;10.35;;;;;;;1.04;100.00;101757.28;5015503;28;20076;-60
2021/12/21 04:31:12;;;;;;;18.38;10.13;;;;;;;0.98;100.00;101755.56;5004529;28;20141;-60
2021/12/21 04:33:42;;;;;;;14.95;9.35;;;;;;;0.94;100.00;101759.03;5006900;28;20542;-61
2021/12/21 04:36:11;;;;;;;15.45;9.55;;;;;;;1.04;100.00;101762.47;5006422;28;20122;-62
2021/12/21 04:38:42;;;;;;;14.23;8.88;;;;;;;1.06;100.00;101763.34;5004063;28;20058;-61
2021/12/21 04:41:21;;;;;;;22.48;10.25;;;;;;;1.13;100.00;101763.34;5006698;28;20054;-57
2021/12/21 04:43:48;;;;;;;18.92;11.07;;;;;;;1.15;100.00;101758.13;5004526;28;20141;-60
2021/12/21 04:46:16;;;;;;;18.42;10.45;;;;;;;1.18;100.00;101753.81;5008551;28;20543;-61
2021/12/21 04:48:43;;;;;;;20.65;10.95;;;;;;;1.20;100.00;101759.00;5004648;28;20088;-60
2021/12/21 04:51:10;;;;;;;21.45;10.40;;;;;;;1.22;100.00;101759.88;4997214;28;20050;-60
2021/12/21 04:53:37;;;;;;;20.50;11.25;;;;;;;1.22;100.00;101762.47;5004633;28;20132;-56
2021/12/21 04:56:05;;;;;;;20.02;10.15;;;;;;;1.24;100.00;101765.91;4999789;28;20092;-60
2021/12/21 04:58:32;;;;;;;22.30;10.82;;;;;;;1.27;100.00;101771.09;5004250;28;20042;-60
2021/12/21 05:01:00;;;;;;;20.88;11.02;;;;;;;1.30;100.00;101760.69;5006604;28;20426;-60
2021/12/21 05:03:27;;;;;;;21.98;11.63;;;;;;;1.35;100.00;101763.28;5006839;28;20108;-59
2021/12/21 05:05:54;;;;;;;16.10;9.98;;;;;;;1.27;100.00;101763.31;5003129;28;20133;-61
2021/12/21 05:08:29;;;;;;;20.95;10.50;;;;;;;1.25;100.00;101762.44;5007174;28;20060;-60
2021/12/21 05:11:01;;;;;;;15.32;9.15;;;;;;;1.26;100.00;101770.22;5003322;28;20560;-59
2021/12/21 05:13:30;;;;;;;19.98;9.95;;;;;;;1.22;100.00;101760.72;5003247;28;20050;-62
2021/12/21 05:15:57;;;;;;;17.10;10.60;;;;;;;1.25;100.00;101762.44;5008509;28;20533;-60
2021/12/21 05:18:25;;;;;;;21.00;9.68;;;;;;;1.25;100.00;101768.47;5007997;28;20510;-57
2021/12/21 05:20:53;;;;;;;14.63;9.00;;;;;;;1.24;100.00;101769.34;5004624;28;20085;-57
2021/12/21 05:23:20;;;;;;;18.52;9.70;;;;;;;1.17;100.00;101771.97;5006300;28;20480;-58
2021/12/21 05:25:48;;;;;;;18.70;9.90;;;;;;;1.19;100.00;101770.25;5000814;28;20130;-59
2021/12/21 05:28:15;;;;;;;19.55;10.32;;;;;;;1.23;100.00;101775.41;5005365;28;20069;-61
2021/12/21 05:30:44;;;;;;;18.15;10.60;;;;;;;1.28;100.00;101765.03;5001348;28;20754;-58
2021/12/21 05:33:11;;;;;;;20.05;11.25;;;;;;;1.26;100.00;101777.13;5001687;28;20054;-59
2021/12/21 05:35:38;;;;;;;16.45;10.02;;;;;;;1.22;100.00;101770.25;5004508;28;20058;-61
2021/12/21 05:38:08;;;;;;;18.77;10.73;;;;;;;1.16;100.00;101767.63;5005598;28;20135;-60
2021/12/21 05:40:39;;;;;;;18.25;9.52;;;;;;;1.15;100.00;101769.38;4995514;28;20149;-57
2021/12/21 05:43:08;;;;;;;18.00;9.77;;;;;;;1.13;100.00;101772.84;5007482;28;20076;-58
2021/12/21 05:45:35;;;;;;;17.52;9.35;;;;;;;1.15;100.00;101766.78;5005187;28;20057;-60
2021/12/21 05:48:03;;;;;;;16.60;9.15;;;;;;;1.17;100.00;101766.75;5007088;28;20065;-58
2021/12/21 05:50:31;;;;;;;14.77;9.55;;;;;;;1.11;100.00;101759.88;5005979;28;20065;-58
2021/12/21 05:52:58;;;;;;;15.00;9.18;;;;;;;1.11;100.00;101771.97;5007007;28;20095;-60
2021/12/21 05:55:25;;;;;;;15.82;9.77;;;;;;;1.25;100.00;101778.00;5003498;28;20077;-60
2021/12/21 05:57:52;;;;;;;16.90;9.93;;;;;;;1.23;100.00;101774.56;5000337;28;20133;-60
2021/12/21 06:00:23;;;;;;;17.35;9.80;;;;;;;1.22;100.00;101780.63;4999718;28;20399;-60
2021/12/21 06:02:51;;;;;;;18.50;8.85;;;;;;;1.17;100.00;101782.31;5006906;28;20133;-59
2021/12/21 06:05:19;;;;;;;15.55;8.82;;;;;;;1.13;100.00;101781.50;5000670;28;20140;-61
2021/12/21 06:07:49;;;;;;;15.70;9.30;;;;;;;1.20;100.00;101788.38;5004245;28;20057;-60
2021/12/21 06:10:23;;;;;;;15.88;9.10;;;;;;;1.20;100.00;101784.94;4995871;28;20053;-60
2021/12/21 06:24:03;;;;;;;17.25;8.82;;;;;;;1.18;100.00;101795.31;5006934;28;19949;-61
2021/12/21 06:26:21;;;;;;;14.85;8.82;;;;;;;1.14;100.00;101791.00;5005191;28;20054;-60
2021/12/21 06:28:49;;;;;;;13.45;8.80;;;;;;;1.17;100.00;101791.00;5016137;28;20447;-60
2021/12/21 06:31:17;;;;;;;18.08;8.82;;;;;;;1.20;100.00;101793.56;5004010;28;20140;-61
2021/12/21 06:33:44;;;;;;;18.30;9.00;;;;;;;1.15;100.00;101790.13;5005093;28;20095;-60
2021/12/21 06:36:11;;;;;;;15.10;8.20;;;;;;;1.21;100.00;101790.09;5008521;28;20062;-59
2021/12/21 06:38:39;;;;;;;17.67;9.32;;;;;;;1.21;100.00;101794.44;5006889;28;20045;-60
2021/12/21 06:41:06;;;;;;;15.90;8.05;;;;;;;1.24;100.00;101789.25;5007443;28;20104;-62
2021/12/21 06:43:33;;;;;;;15.45;7.80;;;;;;;1.27;100.00;101790.13;5003489;28;20053;-61
2021/12/21 06:46:15;;;;;;;15.80;8.07;;;;;;;1.28;100.00;101785.78;5003626;28;20060;-61
2021/12/21 06:51:37;;;;;;;12.80;7.68;;;;;;;1.33;100.00;101791.81;5007588;28;20072;-58
2021/12/21 06:54:05;;;;;;;12.73;7.90;;;;;;;1.31;100.00;101790.97;5005194;28;20050;-61
2021/12/21 06:56:32;;;;;;;14.50;8.13;;;;;;;1.31;100.00;101796.16;5004679;28;20133;-60
2021/12/21 06:58:59;;;;;;;12.32;8.32;;;;;;;1.32;100.00;101803.06;5004820;28;20054;-60
2021/12/21 07:01:28;;;;;;;13.93;8.02;;;;;;;1.33;100.00;101804.78;5003670;28;20064;-61
2021/12/21 07:03:57;;;;;;;11.07;7.50;;;;;;;1.35;100.00;101802.19;5002840;28;20133;-59
2021/12/21 07:06:24;;;;;;;9.60;7.20;;;;;;;1.32;100.00;101805.66;5007867;28;20050;-60
2021/12/21 07:09:13;;;;;;;12.23;7.90;;;;;;;1.35;100.00;101803.06;5004733;28;20041;-61
2021/12/21 07:11:44;;;;;;;12.75;7.45;;;;;;;1.32;100.00;101794.44;5003813;28;20112;-61
2021/12/21 07:19:45;;;;;;;13.63;8.10;;;;;;;1.34;100.00;101808.25;5000490;28;20054;-59
2021/12/21 07:22:12;;;;;;;13.88;8.13;;;;;;;1.33;100.00;101807.38;4998915;28;20123;-61
2021/12/21 07:24:40;;;;;;;11.68;7.45;;;;;;;1.31;100.00;101808.28;5009199;28;20080;-62
2021/12/21 07:27:07;;;;;;;16.08;7.88;;;;;;;1.34;100.00;101800.47;5008028;28;20241;-60
2021/12/21 07:29:34;;;;;;;17.13;9.55;;;;;;;1.33;100.00;101802.19;5001545;28;20081;-61
2021/12/21 07:32:02;;;;;;;19.80;9.32;;;;;;;1.44;100.00;101799.56;5002001;28;20061;-60
2021/12/21 07:34:29;;;;;;;15.68;8.65;;;;;;;1.39;100.00;101809.97;5003079;28;20145;-60
2021/12/21 07:36:56;;;;;;;18.33;8.75;;;;;;;1.38;100.00;101805.66;5010886;28;20050;-60
2021/12/21 07:39:23;;;;;;;21.52;10.45;;;;;;;1.29;100.00;101805.66;5003264;28;20046;-61
2021/12/21 07:42:11;;;;;;;12.15;8.50;;;;;;;1.24;100.00;101805.66;5005568;28;20057;-60
2021/12/21 07:44:38;;;;;;;12.02;8.45;;;;;;;1.30;100.00;101803.94;5005359;28;20533;-61
2021/12/21 07:47:05;;;;;;;18.48;8.52;;;;;;;1.31;100.00;101809.13;5007590;28;20440;-60
2021/12/21 07:49:32;;;;;;;12.82;7.82;;;;;;;1.25;100.00;101809.13;5000860;28;20042;-59
2021/12/21 07:52:00;;;;;;;18.15;8.63;;;;;;;1.31;100.00;101808.28;5003991;28;20769;-60
2021/12/21 07:54:27;;;;;;;12.45;7.25;;;;;;;1.32;100.00;101807.41;5005112;28;20080;-59
2021/12/21 07:56:54;;;;;;;17.88;8.57;;;;;;;1.31;100.00;101809.13;5004357;28;20049;-61
2021/12/21 07:59:21;;;;;;;14.50;8.02;;;;;;;1.37;100.00;101813.44;5000081;28;20052;-58
2021/12/21 08:01:48;;;;;;;26.23;8.75;;;;;;;1.36;100.00;101807.38;5008647;28;20141;-60
2021/12/21 08:04:16;;;;;;;23.75;8.88;;;;;;;1.43;100.00;101819.47;5000333;28;20133;-59
2021/12/21 08:06:47;;;;;;;20.30;9.27;;;;;;;1.55;100.00;101804.75;5000639;28;20115;-59
2021/12/21 08:09:14;;;;;;;27.77;10.30;;;;;;;1.62;100.00;101806.44;5007355;28;20056;-60
2021/12/21 08:14:09;;;;;;;43.58;10.95;;;;;;;1.69;100.00;101800.38;5005722;28;20569;-60
2021/12/21 08:16:36;;;;;;;45.92;11.32;;;;;;;1.66;100.00;101811.63;5005427;28;20053;-59
2021/12/21 08:19:03;;;;;;;45.88;10.77;;;;;;;1.66;100.00;101805.56;5005174;28;20113;-60
2021/12/21 08:21:31;;;;;;;75.93;13.48;;;;;;;1.69;100.00;101813.34;5006836;28;20221;-57
2021/12/21 08:23:58;;;;;;;78.85;14.73;;;;;;;1.66;100.00;101819.41;5006901;28;20057;-61
2021/12/21 08:26:26;;;;;;;42.75;10.35;;;;;;;1.82;100.00;101811.59;5032669;22;20152;-59
2021/12/21 08:28:53;;;;;;;62.10;12.27;;;;;;;1.77;100.00;101816.78;5019510;28;20382;-62
2021/12/21 08:31:20;;;;;;;50.65;11.02;;;;;;;1.77;100.00;101814.19;5024830;28;20591;-58
2021/12/21 08:33:47;;;;;;;32.55;9.73;;;;;;;1.76;100.00;101823.72;5035031;28;20060;-60
2021/12/21 08:36:14;;;;;;;29.52;9.85;;;;;;;1.81;100.00;101826.31;5029933;28;20045;-60
2021/12/21 08:38:43;;;;;;;16.20;8.73;;;;;;;1.74;100.00;101833.22;5028932;28;20472;-60
2021/12/21 08:41:11;;;;;;;14.82;8.82;;;;;;;1.67;100.00;101831.53;5028904;28;20061;-61
2021/12/21 08:43:38;;;;;;;13.48;9.02;;;;;;;1.74;99.49;101835.81;5028280;28;20103;-63
2021/12/21 08:46:08;;;;;;;18.10;8.95;;;;;;;1.73;99.18;101838.44;5027829;28;20068;-59
2021/12/21 08:48:36;;;;;;;14.20;8.43;;;;;;;1.55;99.51;101838.50;5023627;28;20060;-65
2021/12/21 08:51:04;;;;;;;15.65;8.75;;;;;;;1.72;100.00;101832.38;5028608;28;20405;-59
2021/12/21 08:53:32;;;;;;;16.90;9.13;;;;;;;1.75;99.05;101834.94;5024614;28;20084;-61
2021/12/21 08:55:59;;;;;;;15.52;8.25;;;;;;;1.93;97.97;101826.22;5023169;28;20099;-59
2021/12/21 08:58:26;;;;;;;13.95;8.70;;;;;;;1.92;97.12;101827.09;5027076;28;20519;-60
2021/12/21 09:00:53;;;;;;;14.95;8.07;;;;;;;1.86;97.27;101819.34;5027800;28;20037;-61
2021/12/21 09:03:22;;;;;;;13.15;8.57;;;;;;;1.93;96.97;101822.78;5034784;28;20144;-58
2021/12/21 09:05:49;;;;;;;16.30;9.07;;;;;;;1.97;96.78;101819.28;5032365;28;20057;-60
2021/12/21 09:08:17;;;;;;;14.75;7.68;;;;;;;1.98;96.88;101823.63;5026001;28;20069;-59
2021/12/21 09:10:44;;;;;;;14.52;8.38;;;;;;;2.08;96.64;101816.66;5026798;28;20095;-60
2021/12/21 09:13:12;;;;;;;18.77;9.02;;;;;;;2.19;95.85;101830.47;5030570;28;20054;-60
2021/12/21 09:15:44;;;;;;;18.52;8.05;;;;;;;2.26;95.28;101833.03;5026135;28;20047;-60
2021/12/21 09:18:11;;;;;;;32.40;9.52;;;;;;;2.36;94.87;101839.03;5030351;28;20045;-61
2021/12/21 09:20:38;;;;;;;26.98;9.43;;;;;;;2.37;93.33;101840.75;5030593;28;20088;-60
2021/12/21 09:23:05;;;;;;;14.00;8.27;;;;;;;2.13;92.78;101839.16;5026905;28;20051;-62
2021/12/21 09:25:33;;;;;;;11.10;7.88;;;;;;;1.95;93.54;101836.63;5027369;28;20084;-61
2021/12/21 09:28:00;;;;;;;21.77;8.40;;;;;;;1.91;94.13;101837.50;5021210;28;20076;-60
2021/12/21 09:30:28;;;;;;;17.42;8.80;;;;;;;1.99;94.29;101833.16;5026599;28;20052;-62
2021/12/21 09:32:56;;;;;;;27.88;10.85;;;;;;;2.17;94.37;101837.41;5029618;28;20418;-61
2021/12/21 09:35:24;;;;;;;16.88;9.15;;;;;;;2.33;94.86;101835.56;5024832;28;20060;-62
2021/12/21 09:37:51;;;;;;;28.50;9.43;;;;;;;2.45;93.66;101836.38;5023922;28;20050;-61
2021/12/21 09:40:24;;;;;;;20.90;9.60;;;;;;;2.68;93.63;101832.75;5023754;28;20053;-62
2021/12/21 09:42:51;;;;;;;13.55;8.73;;;;;;;2.68;90.91;101835.38;5022394;28;20057;-62
2021/12/21 09:45:19;;;;;;;16.52;8.88;;;;;;;2.63;90.79;101839.75;5018226;28;20156;-59
2021/12/21 09:47:49;;;;;;;15.15;8.25;;;;;;;2.63;91.13;101838.00;5023646;28;20068;-60
2021/12/21 09:50:17;;;;;;;16.65;8.85;;;;;;;2.72;91.95;101840.53;5020788;28;20052;-62
2021/12/21 09:52:45;;;;;;;26.60;9.30;;;;;;;2.73;91.15;101844.00;5025173;28;20042;-60
2021/12/21 09:55:15;;;;;;;19.52;9.88;;;;;;;2.62;90.95;101844.06;5023308;28;20053;-61
2021/12/21 09:57:42;;;;;;;13.98;8.55;;;;;;;2.40;91.60;101845.06;5019640;28;20045;-60
2021/12/21 10:00:15;;;;;;;14.35;8.30;;;;;;;2.31;91.95;101843.41;5021998;28;20060;-60
2021/12/21 10:02:42;;;;;;;14.02;8.70;;;;;;;2.31;91.75;101843.41;5022128;28;20045;-61
2021/12/21 10:05:13;;;;;;;16.17;9.32;;;;;;;2.08;92.22;101847.84;5024036;28;20144;-59
2021/12/21 10:07:40;;;;;;;17.98;9.25;;;;;;;2.10;92.78;101846.94;5024352;28;20053;-58
2021/12/21 10:10:10;;;;;;;13.25;8.43;;;;;;;2.05;92.88;101846.09;5020874;28;20045;-59
2021/12/21 10:12:42;;;;;;;13.52;8.85;;;;;;;2.02;92.36;101846.09;5026937;28;20458;-61
2021/12/21 10:15:18;;;;;;;16.08;8.82;;;;;;;1.88;92.47;101843.56;5021620;28;20081;-59
2021/12/21 10:17:57;;;;;;;15.60;8.75;;;;;;;1.92;92.81;101834.03;5024901;28;20054;-58
2021/12/21 10:20:35;;;;;;;18.27;9.82;;;;;;;2.03;92.78;101845.25;5023768;28;20084;-62
2021/12/21 10:23:14;;;;;;;15.77;9.35;;;;;;;2.06;93.15;101845.22;5027800;28;20057;-58
2021/12/21 10:26:06;;;;;;;14.15;9.00;;;;;;;2.03;93.25;101846.13;5023978;28;20076;-60
2021/12/21 10:28:48;;;;;;;20.02;9.25;;;;;;;2.20;94.97;101847.75;5018166;28;20149;-61
2021/12/21 10:31:28;;;;;;;23.33;10.90;;;;;;;2.33;95.14;101848.56;5021951;28;20042;-61
2021/12/21 10:33:57;;;;;;;21.02;11.18;;;;;;;2.51;95.04;101851.91;5028669;28;20053;-61
2021/12/21 10:36:26;;;;;;;20.88;10.23;;;;;;;2.52;93.94;101848.47;5022572;28;20049;-61
2021/12/21 10:38:59;;;;;;;37.67;11.00;;;;;;;2.43;93.07;101845.94;5026796;28;20412;-60
2021/12/21 10:41:40;;;;;;;21.33;10.07;;;;;;;2.26;92.74;101846.00;5019979;28;20049;-61
2021/12/21 10:44:14;;;;;;;19.08;10.15;;;;;;;2.32;92.85;101847.72;5020765;28;20136;-60
2021/12/21 10:46:44;;;;;;;20.08;11.07;;;;;;;2.26;92.46;101845.16;5027249;28;20473;-61
2021/12/21 10:49:31;;;;;;;19.98;10.32;;;;;;;2.44;92.28;101845.06;5025426;28;20041;-59
2021/12/21 10:52:07;;;;;;;15.23;10.95;;;;;;;2.24;90.51;101837.34;5025525;28;20049;-55
2021/12/21 10:54:43;;;;;;;16.77;10.55;;;;;;;2.16;91.48;101840.84;5026195;28;20057;-60
2021/12/21 10:57:11;;;;;;;;;;;;;;;2.08;91.93;101833.13;5022378;28;20076;-59
2021/12/21 10:59:41;;;;;;;21.02;10.50;;;;;;;2.06;92.39;101841.78;5024896;28;19921;-60
2021/12/21 11:02:12;;;;;;;15.95;11.07;;;;;;;2.21;92.31;101837.38;5027240;28;20517;-61
2021/12/21 11:04:47;;;;;;;27.75;11.43;;;;;;;2.30;91.93;101836.47;5015958;28;20163;-60
2021/12/21 11:07:34;;;;;;;19.30;11.90;;;;;;;2.37;91.63;101838.16;5025382;28;20053;-58
2021/12/21 11:10:11;;;;;;;22.45;11.27;;;;;;;2.42;91.71;101838.97;5020777;28;20049;-58
2021/12/21 11:13:02;;;;;;;20.77;10.25;;;;;;;2.51;91.59;101831.13;5022570;28;20059;-60
2021/12/21 11:15:32;;;;;;;20.67;11.20;;;;;;;2.44;91.24;101834.66;5020767;28;20731;-58
2021/12/21 11:18:03;;;;;;;18.95;10.80;;;;;;;2.46;91.51;101832.91;5018188;28;20052;-62
2021/12/21 11:20:30;;;;;;;18.02;10.30;;;;;;;2.44;90.07;101836.41;5020072;28;20468;-62
2021/12/21 11:23:00;;;;;;;19.25;9.57;;;;;;;2.43;90.44;101832.03;5020947;28;20128;-62
2021/12/21 11:25:27;;;;;;;15.95;8.82;;;;;;;2.49;90.46;101829.44;5019409;28;20144;-61
2021/12/21 11:27:55;;;;;;;22.73;10.57;;;;;;;2.62;89.99;101823.28;5019325;28;20140;-60
2021/12/21 11:30:24;;;;;;;16.33;9.75;;;;;;;2.62;88.58;101827.63;5021802;28;20053;-60
2021/12/21 11:32:52;;;;;;;22.27;10.73;;;;;;;2.68;88.68;101819.75;5029935;28;20073;-58
2021/12/21 11:37:53;;;;;;;20.27;10.30;;;;;;;2.72;88.48;101811.94;5022685;28;20055;-60
2021/12/21 11:40:23;;;;;;;17.58;10.00;;;;;;;2.77;88.92;101806.69;5025657;28;20057;-60
2021/12/21 11:42:50;;;;;;;18.02;11.18;;;;;;;2.62;88.62;101812.03;5032002;28;20136;-58
2021/12/21 11:45:45;;;;;;;22.08;12.30;;;;;;;2.58;90.32;101807.72;5025875;28;20077;-58
2021/12/21 11:48:19;;;;;;;21.25;12.05;;;;;;;2.63;90.33;101805.94;5022764;28;20049;-59
2021/12/21 11:50:49;;;;;;;18.42;11.18;;;;;;;2.53;90.56;101799.94;5025956;28;20069;-59
2021/12/21 11:53:18;;;;;;;17.60;11.38;;;;;;;2.54;90.57;101799.06;5026129;28;20049;-61
2021/12/21 11:55:48;;;;;;;18.52;10.20;;;;;;;2.54;90.29;101804.25;5026929;28;20363;-60
2021/12/21 11:58:19;;;;;;;17.15;9.95;;;;;;;2.41;89.81;101798.28;5029851;28;20081;-62
2021/12/21 12:00:52;;;;;;;16.60;11.07;;;;;;;2.33;90.69;101804.41;5031992;28;20058;-61
2021/12/21 12:03:22;;;;;;;16.00;10.57;;;;;;;2.34;90.42;101798.31;5035961;28;20053;-60
2021/12/21 12:06:04;;;;;;;22.08;10.85;;;;;;;2.43;92.24;101801.75;5024234;28;20085;-65
2021/12/21 12:08:50;;;;;;;18.80;11.80;;;;;;;2.57;93.17;101799.06;5027271;28;20132;-57
2021/12/21 12:11:23;;;;;;;22.58;11.63;;;;;;;2.64;92.17;101797.25;5030795;28;20877;-61
2021/12/21 12:14:02;;;;;;;16.55;9.63;;;;;;;2.62;90.48;101799.88;5029682;28;20057;-62
2021/12/21 12:16:52;;;;;;;15.85;10.05;;;;;;;2.54;89.85;101801.66;5032795;28;20098;-59
2021/12/21 12:19:22;;;;;;;16.23;9.50;;;;;;;2.54;89.94;101799.94;5029047;28;20060;-59
2021/12/21 12:22:08;;;;;;;16.67;9.35;;;;;;;2.51;89.58;101797.34;5027064;28;20480;-59
2021/12/21 12:24:40;;;;;;;18.70;9.40;;;;;;;2.53;89.56;101792.16;5029690;28;20049;-61
2021/12/21 12:27:16;;;;;;;15.68;9.63;;;;;;;2.63;89.24;101792.94;5030746;28;20100;-63
2021/12/21 12:30:02;;;;;;;18.80;10.13;;;;;;;2.58;89.04;101797.31;5027585;28;20421;-60